sensor_id;sensor_type;location;lat;lon;timestamp;P1;durP1;ratioP1;P2;durP2;ratioP2
17670;SDS011;8954;48.694;8.940;2023-04-24T07:46:17;0.10;;;0.10;;
17670;SDS011;8954;48.694;8.940;2023-04-24T07:48:43;0.00;;;0.00;;
17670;SDS011;8954;48.694;8.940;2023-04-24T07:51:08;0.63;;;0.00;;
17670;SDS011;8954;48.694;8.940;2023-04-24T07:53:35;0.00;;;0.00;;
17670;SDS011;8954;48.694;8.940;2023-04-24T07:56:01;0.00;;;0.00;;
17670;SDS011;8954;48.694;8.940;2023-04-24T07:58:26;0.10;;;0.00;;
17670;SDS011;8954;48.694;8.940;2023-04-24T08:00:52;0.10;;;0.00;;
17670;SDS011;8954;48.694;8.940;2023-04-24T08:03:18;0.00;;;0.00;;
17670;SDS011;8954;48.694;8.940;2023-04-24T08:05:44;0.00;;;0.00;;
17670;SDS011;8954;48.694;8.940;2023-04-24T08:08:10;0.00;;;0.00;;
17670;SDS011;8954;48.694;8.940;2023-04-24T08:10:36;0.10;;;0.10;;
17670;SDS011;8954;48.694;8.940;2023-04-24T08:13:01;0.00;;;0.00;;
17670;SDS011;8954;48.694;8.940;2023-04-24T08:15:27;0.00;;;0.00;;
17670;SDS011;8954;48.694;8.940;2023-04-24T08:17:53;0.00;;;0.00;;
17670;SDS011;8954;48.694;8.940;2023-04-24T08:20:18;0.00;;;0.00;;
17670;SDS011;8954;48.694;8.940;2023-04-24T08:22:44;0.00;;;0.00;;
17670;SDS011;8954;48.694;8.940;2023-04-24T08:25:12;0.00;;;0.00;;
17670;SDS011;8954;48.694;8.940;2023-04-24T08:27:37;0.00;;;0.00;;
17670;SDS011;8954;48.694;8.940;2023-04-24T08:30:04;0.00;;;0.00;;
17670;SDS011;8954;48.694;8.940;2023-04-24T08:32:31;0.10;;;0.00;;
17670;SDS011;8954;48.694;8.940;2023-04-24T08:34:57;0.00;;;0.00;;
17670;SDS011;8954;48.694;8.940;2023-04-24T08:37:26;0.00;;;0.00;;
17670;SDS011;8954;48.694;8.940;2023-04-24T08:39:52;0.00;;;0.00;;
17670;SDS011;8954;48.694;8.940;2023-04-24T08:42:18;0.03;;;0.03;;
17670;SDS011;8954;48.694;8.940;2023-04-24T08:44:44;0.00;;;0.00;;
17670;SDS011;8954;48.694;8.940;2023-04-24T08:47:10;0.00;;;0.00;;
17670;SDS011;8954;48.694;8.940;2023-04-24T08:49:37;0.00;;;0.00;;
17670;SDS011;8954;48.694;8.940;2023-04-24T08:52:03;0.00;;;0.00;;
17670;SDS011;8954;48.694;8.940;2023-04-24T08:54:30;0.00;;;0.00;;
17670;SDS011;8954;48.694;8.940;2023-04-24T08:56:58;0.00;;;0.00;;
17670;SDS011;8954;48.694;8.940;2023-04-24T08:59:28;0.00;;;0.00;;
17670;SDS011;8954;48.694;8.940;2023-04-24T09:01:55;0.00;;;0.00;;
17670;SDS011;8954;48.694;8.940;2023-04-24T09:04:21;0.00;;;0.00;;
17670;SDS011;8954;48.694;8.940;2023-04-24T09:06:49;0.00;;;0.00;;
17670;SDS011;8954;48.694;8.940;2023-04-24T09:09:22;0.00;;;0.00;;
17670;SDS011;8954;48.694;8.940;2023-04-24T09:11:49;0.00;;;0.00;;
17670;SDS011;8954;48.694;8.940;2023-04-24T09:14:15;0.00;;;0.00;;
17670;SDS011;8954;48.694;8.940;2023-04-24T09:16:42;0.00;;;0.00;;
17670;SDS011;8954;48.694;8.940;2023-04-24T09:19:07;0.00;;;0.00;;
17670;SDS011;8954;48.694;8.940;2023-04-24T09:21:33;0.00;;;0.00;;
17670;SDS011;8954;48.694;8.940;2023-04-24T09:24:01;0.00;;;0.00;;
17670;SDS011;8954;48.694;8.940;2023-04-24T09:26:31;0.00;;;0.00;;
17670;SDS011;8954;48.694;8.940;2023-04-24T09:29:00;0.00;;;0.00;;
17670;SDS011;8954;48.694;8.940;2023-04-24T09:31:26;0.00;;;0.00;;
17670;SDS011;8954;48.694;8.940;2023-04-24T09:33:54;0.00;;;0.00;;
17670;SDS011;8954;48.694;8.940;2023-04-24T09:36:26;0.00;;;0.00;;
17670;SDS011;8954;48.694;8.940;2023-04-24T09:38:53;0.00;;;0.00;;
17670;SDS011;8954;48.694;8.940;2023-04-24T09:41:23;0.00;;;0.00;;
17670;SDS011;8954;48.694;8.940;2023-04-24T09:43:49;0.00;;;0.00;;
17670;SDS011;8954;48.694;8.940;2023-04-24T09:46:15;0.00;;;0.00;;
17670;SDS011;8954;48.694;8.940;2023-04-24T09:48:43;0.00;;;0.00;;
17670;SDS011;8954;48.694;8.940;2023-04-24T09:51:09;0.00;;;0.00;;
17670;SDS011;8954;48.694;8.940;2023-04-24T09:53:38;0.00;;;0.00;;
17670;SDS011;8954;48.694;8.940;2023-04-24T09:56:06;0.00;;;0.00;;
17670;SDS011;8954;48.694;8.940;2023-04-24T09:58:34;0.00;;;0.00;;
17670;SDS011;8954;48.694;8.940;2023-04-24T10:01:01;0.00;;;0.00;;
17670;SDS011;8954;48.694;8.940;2023-04-24T10:03:29;0.00;;;0.00;;
17670;SDS011;8954;48.694;8.940;2023-04-24T10:05:59;0.00;;;0.00;;
17670;SDS011;8954;48.694;8.940;2023-04-24T10:08:26;0.00;;;0.00;;
17670;SDS011;8954;48.694;8.940;2023-04-24T10:10:51;0.00;;;0.00;;
17670;SDS011;8954;48.694;8.940;2023-04-24T10:13:17;0.00;;;0.00;;
17670;SDS011;8954;48.694;8.940;2023-04-24T10:15:43;0.00;;;0.00;;
17670;SDS011;8954;48.694;8.940;2023-04-24T10:18:09;0.00;;;0.00;;
17670;SDS011;8954;48.694;8.940;2023-04-24T10:20:36;0.00;;;0.00;;
17670;SDS011;8954;48.694;8.940;2023-04-24T10:23:04;0.00;;;0.00;;
17670;SDS011;8954;48.694;8.940;2023-04-24T10:25:31;0.00;;;0.00;;
17670;SDS011;8954;48.694;8.940;2023-04-24T10:27:59;0.00;;;0.00;;
17670;SDS011;8954;48.694;8.940;2023-04-24T10:30:34;0.00;;;0.00;;
17670;SDS011;8954;48.694;8.940;2023-04-24T10:33:03;0.00;;;0.00;;
17670;SDS011;8954;48.694;8.940;2023-04-24T10:35:36;0.00;;;0.00;;
17670;SDS011;8954;48.694;8.940;2023-04-24T10:38:13;0.00;;;0.00;;
17670;SDS011;8954;48.694;8.940;2023-04-24T10:40:41;0.00;;;0.00;;
17670;SDS011;8954;48.694;8.940;2023-04-24T10:43:08;0.00;;;0.00;;
17670;SDS011;8954;48.694;8.940;2023-04-24T10:45:37;0.00;;;0.00;;
17670;SDS011;8954;48.694;8.940;2023-04-24T10:48:07;0.00;;;0.00;;
17670;SDS011;8954;48.694;8.940;2023-04-24T10:50:46;0.00;;;0.00;;
17670;SDS011;8954;48.694;8.940;2023-04-24T10:53:19;0.00;;;0.00;;
17670;SDS011;8954;48.694;8.940;2023-04-24T11:01:24;0.00;;;0.00;;
17670;SDS011;8954;48.694;8.940;2023-04-24T11:03:54;0.00;;;0.00;;
17670;SDS011;8954;48.694;8.940;2023-04-24T11:06:28;0.00;;;0.00;;
17670;SDS011;8954;48.694;8.940;2023-04-24T11:09:15;0.00;;;0.00;;
17670;SDS011;8954;48.694;8.940;2023-04-24T11:11:45;0.00;;;0.00;;
17670;SDS011;8954;48.694;8.940;2023-04-24T11:14:14;0.00;;;0.00;;
17670;SDS011;8954;48.694;8.940;2023-04-24T11:16:53;0.00;;;0.00;;
17670;SDS011;8954;48.694;8.940;2023-04-24T11:19:23;0.00;;;0.00;;
17670;SDS011;8954;48.694;8.940;2023-04-24T11:21:54;0.00;;;0.00;;
17670;SDS011;8954;48.694;8.940;2023-04-24T11:29:39;0.00;;;0.00;;
17670;SDS011;8954;48.694;8.940;2023-04-24T11:32:28;0.00;;;0.00;;
17670;SDS011;8954;48.694;8.940;2023-04-24T11:35:14;0.00;;;0.00;;
17670;SDS011;8954;48.694;8.940;2023-04-24T11:37:42;0.00;;;0.00;;
17670;SDS011;8954;48.694;8.940;2023-04-24T11:40:16;0.00;;;0.00;;
17670;SDS011;8954;48.694;8.940;2023-04-24T11:42:45;0.00;;;0.00;;
17670;SDS011;8954;48.694;8.940;2023-04-24T11:47:39;0.00;;;0.00;;
17670;SDS011;8954;48.694;8.940;2023-04-24T11:50:12;0.00;;;0.00;;
17670;SDS011;8954;48.694;8.940;2023-04-24T11:52:39;0.00;;;0.00;;
17670;SDS011;8954;48.694;8.940;2023-04-24T11:55:07;0.00;;;0.00;;
17670;SDS011;8954;48.694;8.940;2023-04-24T11:57:48;0.00;;;0.00;;
17670;SDS011;8954;48.694;8.940;2023-04-24T12:00:16;0.00;;;0.00;;
17670;SDS011;8954;48.694;8.940;2023-04-24T12:02:46;0.00;;;0.00;;
17670;SDS011;8954;48.694;8.940;2023-04-24T12:07:50;0.00;;;0.00;;
17670;SDS011;8954;48.694;8.940;2023-04-24T12:10:23;0.00;;;0.00;;
17670;SDS011;8954;48.694;8.940;2023-04-24T12:12:50;0.00;;;0.00;;
17670;SDS011;8954;48.694;8.940;2023-04-24T12:15:17;0.00;;;0.00;;
17670;SDS011;8954;48.694;8.940;2023-04-24T12:17:44;0.00;;;0.00;;
17670;SDS011;8954;48.694;8.940;2023-04-24T12:20:10;0.00;;;0.00;;
17670;SDS011;8954;48.694;8.940;2023-04-24T12:22:46;0.00;;;0.00;;
17670;SDS011;8954;48.694;8.940;2023-04-24T12:25:19;0.00;;;0.00;;
17670;SDS011;8954;48.694;8.940;2023-04-24T12:27:46;0.00;;;0.00;;
17670;SDS011;8954;48.694;8.940;2023-04-24T12:30:16;0.00;;;0.00;;
17670;SDS011;8954;48.694;8.940;2023-04-24T12:32:46;0.00;;;0.00;;
17670;SDS011;8954;48.694;8.940;2023-04-24T12:35:12;0.00;;;0.00;;
17670;SDS011;8954;48.694;8.940;2023-04-24T12:37:43;0.00;;;0.00;;
17670;SDS011;8954;48.694;8.940;2023-04-24T12:40:10;0.00;;;0.00;;
17670;SDS011;8954;48.694;8.940;2023-04-24T12:42:43;0.00;;;0.00;;
17670;SDS011;8954;48.694;8.940;2023-04-24T12:45:11;0.00;;;0.00;;
17670;SDS011;8954;48.694;8.940;2023-04-24T12:47:38;0.00;;;0.00;;
17670;SDS011;8954;48.694;8.940;2023-04-24T12:50:05;0.00;;;0.00;;
17670;SDS011;8954;48.694;8.940;2023-04-24T12:52:31;0.00;;;0.00;;
17670;SDS011;8954;48.694;8.940;2023-04-24T12:54:57;0.00;;;0.00;;
17670;SDS011;8954;48.694;8.940;2023-04-24T12:57:25;0.00;;;0.00;;
17670;SDS011;8954;48.694;8.940;2023-04-24T12:59:55;0.07;;;0.07;;
17670;SDS011;8954;48.694;8.940;2023-04-24T13:02:22;0.00;;;0.00;;
17670;SDS011;8954;48.694;8.940;2023-04-24T13:04:48;0.00;;;0.00;;
17670;SDS011;8954;48.694;8.940;2023-04-24T13:07:15;0.00;;;0.00;;
17670;SDS011;8954;48.694;8.940;2023-04-24T13:09:41;0.00;;;0.00;;
17670;SDS011;8954;48.694;8.940;2023-04-24T13:12:07;0.00;;;0.00;;
17670;SDS011;8954;48.694;8.940;2023-04-24T13:14:34;0.00;;;0.00;;
17670;SDS011;8954;48.694;8.940;2023-04-24T13:17:00;0.00;;;0.00;;
17670;SDS011;8954;48.694;8.940;2023-04-24T13:19:25;0.20;;;0.00;;
17670;SDS011;8954;48.694;8.940;2023-04-24T13:21:53;0.00;;;0.00;;
17670;SDS011;8954;48.694;8.940;2023-04-24T13:24:21;0.00;;;0.00;;
17670;SDS011;8954;48.694;8.940;2023-04-24T13:26:49;0.00;;;0.00;;
17670;SDS011;8954;48.694;8.940;2023-04-24T13:29:15;0.00;;;0.00;;
17670;SDS011;8954;48.694;8.940;2023-04-24T13:31:41;0.00;;;0.00;;
17670;SDS011;8954;48.694;8.940;2023-04-24T13:34:07;0.00;;;0.00;;
17670;SDS011;8954;48.694;8.940;2023-04-24T13:36:32;0.00;;;0.00;;
17670;SDS011;8954;48.694;8.940;2023-04-24T13:38:58;0.00;;;0.00;;
17670;SDS011;8954;48.694;8.940;2023-04-24T13:41:23;0.00;;;0.00;;
17670;SDS011;8954;48.694;8.940;2023-04-24T13:43:49;0.00;;;0.00;;
17670;SDS011;8954;48.694;8.940;2023-04-24T13:46:15;0.00;;;0.00;;
17670;SDS011;8954;48.694;8.940;2023-04-24T13:48:41;0.00;;;0.00;;
17670;SDS011;8954;48.694;8.940;2023-04-24T13:51:06;0.00;;;0.00;;
17670;SDS011;8954;48.694;8.940;2023-04-24T13:53:32;0.00;;;0.00;;
17670;SDS011;8954;48.694;8.940;2023-04-24T13:56:01;0.00;;;0.00;;
17670;SDS011;8954;48.694;8.940;2023-04-24T13:58:27;0.00;;;0.00;;
17670;SDS011;8954;48.694;8.940;2023-04-24T14:00:52;0.00;;;0.00;;
17670;SDS011;8954;48.694;8.940;2023-04-24T14:03:18;0.00;;;0.00;;
17670;SDS011;8954;48.694;8.940;2023-04-24T14:05:44;0.00;;;0.00;;
17670;SDS011;8954;48.694;8.940;2023-04-24T14:08:09;0.00;;;0.00;;
17670;SDS011;8954;48.694;8.940;2023-04-24T14:10:35;0.20;;;0.00;;
17670;SDS011;8954;48.694;8.940;2023-04-24T14:13:00;0.10;;;0.10;;
17670;SDS011;8954;48.694;8.940;2023-04-24T14:15:26;0.00;;;0.00;;
17670;SDS011;8954;48.694;8.940;2023-04-24T14:17:52;0.10;;;0.10;;
17670;SDS011;8954;48.694;8.940;2023-04-24T14:20:18;0.57;;;0.00;;
17670;SDS011;8954;48.694;8.940;2023-04-24T14:22:44;0.00;;;0.00;;
17670;SDS011;8954;48.694;8.940;2023-04-24T14:25:10;0.00;;;0.00;;
17670;SDS011;8954;48.694;8.940;2023-04-24T14:27:36;0.00;;;0.00;;
17670;SDS011;8954;48.694;8.940;2023-04-24T14:30:02;0.00;;;0.00;;
17670;SDS011;8954;48.694;8.940;2023-04-24T14:32:28;0.00;;;0.00;;
17670;SDS011;8954;48.694;8.940;2023-04-24T14:34:54;0.00;;;0.00;;
17670;SDS011;8954;48.694;8.940;2023-04-24T14:37:19;0.00;;;0.00;;
17670;SDS011;8954;48.694;8.940;2023-04-24T14:39:45;0.00;;;0.00;;
17670;SDS011;8954;48.694;8.940;2023-04-24T14:42:11;0.00;;;0.00;;
17670;SDS011;8954;48.694;8.940;2023-04-24T14:44:36;0.00;;;0.00;;
17670;SDS011;8954;48.694;8.940;2023-04-24T14:47:02;0.00;;;0.00;;
17670;SDS011;8954;48.694;8.940;2023-04-24T14:49:27;0.00;;;0.00;;
17670;SDS011;8954;48.694;8.940;2023-04-24T14:51:53;0.00;;;0.00;;
17670;SDS011;8954;48.694;8.940;2023-04-24T14:54:18;0.00;;;0.00;;
17670;SDS011;8954;48.694;8.940;2023-04-24T14:56:47;0.00;;;0.00;;
17670;SDS011;8954;48.694;8.940;2023-04-24T14:59:14;0.00;;;0.00;;
17670;SDS011;8954;48.694;8.940;2023-04-24T15:01:39;0.07;;;0.00;;
17670;SDS011;8954;48.694;8.940;2023-04-24T15:04:05;0.00;;;0.00;;
17670;SDS011;8954;48.694;8.940;2023-04-24T15:06:31;0.00;;;0.00;;
17670;SDS011;8954;48.694;8.940;2023-04-24T15:08:57;0.00;;;0.00;;
17670;SDS011;8954;48.694;8.940;2023-04-24T15:11:23;0.00;;;0.00;;
17670;SDS011;8954;48.694;8.940;2023-04-24T15:13:49;0.10;;;0.10;;
17670;SDS011;8954;48.694;8.940;2023-04-24T15:16:15;0.03;;;0.03;;
17670;SDS011;8954;48.694;8.940;2023-04-24T15:18:40;0.00;;;0.00;;
17670;SDS011;8954;48.694;8.940;2023-04-24T15:21:06;0.10;;;0.10;;
17670;SDS011;8954;48.694;8.940;2023-04-24T15:23:32;0.00;;;0.00;;
17670;SDS011;8954;48.694;8.940;2023-04-24T15:25:57;0.13;;;0.13;;
17670;SDS011;8954;48.694;8.940;2023-04-24T15:28:24;0.10;;;0.10;;
17670;SDS011;8954;48.694;8.940;2023-04-24T15:30:49;0.10;;;0.00;;
17670;SDS011;8954;48.694;8.940;2023-04-24T15:33:15;0.20;;;0.20;;
17670;SDS011;8954;48.694;8.940;2023-04-24T15:35:41;0.00;;;0.00;;
17670;SDS011;8954;48.694;8.940;2023-04-24T15:38:06;0.07;;;0.07;;
17670;SDS011;8954;48.694;8.940;2023-04-24T15:40:32;0.00;;;0.00;;
17670;SDS011;8954;48.694;8.940;2023-04-24T15:42:58;0.00;;;0.00;;
17670;SDS011;8954;48.694;8.940;2023-04-24T15:45:24;0.00;;;0.00;;
17670;SDS011;8954;48.694;8.940;2023-04-24T15:47:50;0.00;;;0.00;;
17670;SDS011;8954;48.694;8.940;2023-04-24T15:50:16;0.00;;;0.00;;
17670;SDS011;8954;48.694;8.940;2023-04-24T15:52:43;0.00;;;0.00;;
17670;SDS011;8954;48.694;8.940;2023-04-24T15:55:09;0.00;;;0.00;;
17670;SDS011;8954;48.694;8.940;2023-04-24T15:57:35;0.00;;;0.00;;
17670;SDS011;8954;48.694;8.940;2023-04-24T16:00:01;0.00;;;0.00;;
17670;SDS011;8954;48.694;8.940;2023-04-24T16:02:28;0.00;;;0.00;;
17670;SDS011;8954;48.694;8.940;2023-04-24T16:04:54;0.00;;;0.00;;
17670;SDS011;8954;48.694;8.940;2023-04-24T16:07:19;0.00;;;0.00;;
17670;SDS011;8954;48.694;8.940;2023-04-24T16:09:45;0.00;;;0.00;;
17670;SDS011;8954;48.694;8.940;2023-04-24T16:12:11;0.00;;;0.00;;
17670;SDS011;8954;48.694;8.940;2023-04-24T16:14:37;0.00;;;0.00;;
17670;SDS011;8954;48.694;8.940;2023-04-24T16:17:03;0.00;;;0.00;;
17670;SDS011;8954;48.694;8.940;2023-04-24T16:19:29;0.00;;;0.00;;
17670;SDS011;8954;48.694;8.940;2023-04-24T16:21:55;0.00;;;0.00;;
17670;SDS011;8954;48.694;8.940;2023-04-24T16:24:22;0.00;;;0.00;;
17670;SDS011;8954;48.694;8.940;2023-04-24T16:26:48;0.00;;;0.00;;
17670;SDS011;8954;48.694;8.940;2023-04-24T16:29:14;0.00;;;0.00;;
17670;SDS011;8954;48.694;8.940;2023-04-24T16:31:40;0.00;;;0.00;;
17670;SDS011;8954;48.694;8.940;2023-04-24T16:34:06;0.00;;;0.00;;
17670;SDS011;8954;48.694;8.940;2023-04-24T16:36:31;0.00;;;0.00;;
17670;SDS011;8954;48.694;8.940;2023-04-24T16:38:57;0.00;;;0.00;;
17670;SDS011;8954;48.694;8.940;2023-04-24T16:41:25;0.00;;;0.00;;
17670;SDS011;8954;48.694;8.940;2023-04-24T16:43:51;0.00;;;0.00;;
17670;SDS011;8954;48.694;8.940;2023-04-24T16:46:17;0.00;;;0.00;;
17670;SDS011;8954;48.694;8.940;2023-04-24T16:48:43;0.00;;;0.00;;
17670;SDS011;8954;48.694;8.940;2023-04-24T16:51:09;0.00;;;0.00;;
17670;SDS011;8954;48.694;8.940;2023-04-24T16:53:34;0.00;;;0.00;;
17670;SDS011;8954;48.694;8.940;2023-04-24T16:56:00;0.00;;;0.00;;
17670;SDS011;8954;48.694;8.940;2023-04-24T16:58:29;0.00;;;0.00;;
17670;SDS011;8954;48.694;8.940;2023-04-24T17:00:55;0.00;;;0.00;;
17670;SDS011;8954;48.694;8.940;2023-04-24T17:03:21;0.00;;;0.00;;
17670;SDS011;8954;48.694;8.940;2023-04-24T17:05:47;0.00;;;0.00;;
17670;SDS011;8954;48.694;8.940;2023-04-24T17:08:12;0.00;;;0.00;;
17670;SDS011;8954;48.694;8.940;2023-04-24T17:10:38;0.00;;;0.00;;
17670;SDS011;8954;48.694;8.940;2023-04-24T17:13:05;0.00;;;0.00;;
17670;SDS011;8954;48.694;8.940;2023-04-24T17:15:31;0.00;;;0.00;;
17670;SDS011;8954;48.694;8.940;2023-04-24T17:17:56;0.00;;;0.00;;
17670;SDS011;8954;48.694;8.940;2023-04-24T17:20:22;0.00;;;0.00;;
17670;SDS011;8954;48.694;8.940;2023-04-24T17:22:48;0.00;;;0.00;;
17670;SDS011;8954;48.694;8.940;2023-04-24T17:25:13;0.10;;;0.10;;
17670;SDS011;8954;48.694;8.940;2023-04-24T17:27:39;0.00;;;0.00;;
17670;SDS011;8954;48.694;8.940;2023-04-24T17:30:05;0.00;;;0.00;;
17670;SDS011;8954;48.694;8.940;2023-04-24T17:32:32;0.00;;;0.00;;
17670;SDS011;8954;48.694;8.940;2023-04-24T17:34:58;0.00;;;0.00;;
17670;SDS011;8954;48.694;8.940;2023-04-24T17:37:23;0.03;;;0.03;;
17670;SDS011;8954;48.694;8.940;2023-04-24T17:39:49;0.00;;;0.00;;
17670;SDS011;8954;48.694;8.940;2023-04-24T17:42:15;0.00;;;0.00;;
17670;SDS011;8954;48.694;8.940;2023-04-24T17:44:41;0.10;;;0.10;;
17670;SDS011;8954;48.694;8.940;2023-04-24T17:47:06;0.03;;;0.03;;
17670;SDS011;8954;48.694;8.940;2023-04-24T17:49:32;0.60;;;0.60;;
17670;SDS011;8954;48.694;8.940;2023-04-24T17:51:58;0.27;;;0.27;;
17670;SDS011;8954;48.694;8.940;2023-04-24T17:54:23;0.10;;;0.10;;
17670;SDS011;8954;48.694;8.940;2023-04-24T17:56:49;0.00;;;0.00;;
17670;SDS011;8954;48.694;8.940;2023-04-24T17:59:16;0.10;;;0.10;;
17670;SDS011;8954;48.694;8.940;2023-04-24T18:01:43;0.10;;;0.10;;
17670;SDS011;8954;48.694;8.940;2023-04-24T18:04:08;0.10;;;0.10;;
17670;SDS011;8954;48.694;8.940;2023-04-24T18:06:35;0.17;;;0.07;;
17670;SDS011;8954;48.694;8.940;2023-04-24T18:09:00;0.73;;;0.10;;
17670;SDS011;8954;48.694;8.940;2023-04-24T18:11:27;0.00;;;0.00;;
17670;SDS011;8954;48.694;8.940;2023-04-24T18:13:53;0.10;;;0.10;;
17670;SDS011;8954;48.694;8.940;2023-04-24T18:16:19;0.17;;;0.17;;
17670;SDS011;8954;48.694;8.940;2023-04-24T18:18:45;0.27;;;0.27;;
17670;SDS011;8954;48.694;8.940;2023-04-24T18:21:11;0.37;;;0.33;;
17670;SDS011;8954;48.694;8.940;2023-04-24T18:23:36;0.20;;;0.20;;
17670;SDS011;8954;48.694;8.940;2023-04-24T18:26:02;0.10;;;0.10;;
17670;SDS011;8954;48.694;8.940;2023-04-24T18:28:28;0.30;;;0.30;;
17670;SDS011;8954;48.694;8.940;2023-04-24T18:30:55;0.20;;;0.20;;
17670;SDS011;8954;48.694;8.940;2023-04-24T18:33:21;0.30;;;0.30;;
17670;SDS011;8954;48.694;8.940;2023-04-24T18:35:47;0.30;;;0.30;;
17670;SDS011;8954;48.694;8.940;2023-04-24T18:38:13;0.30;;;0.27;;
17670;SDS011;8954;48.694;8.940;2023-04-24T18:40:38;0.20;;;0.20;;
17670;SDS011;8954;48.694;8.940;2023-04-24T18:43:04;0.23;;;0.23;;
17670;SDS011;8954;48.694;8.940;2023-04-24T18:45:30;0.20;;;0.20;;
17670;SDS011;8954;48.694;8.940;2023-04-24T18:47:56;0.10;;;0.10;;
17670;SDS011;8954;48.694;8.940;2023-04-24T18:50:21;0.20;;;0.20;;
17670;SDS011;8954;48.694;8.940;2023-04-24T18:52:47;0.20;;;0.20;;
17670;SDS011;8954;48.694;8.940;2023-04-24T18:55:12;0.30;;;0.30;;
17670;SDS011;8954;48.694;8.940;2023-04-24T18:57:38;0.20;;;0.20;;
17670;SDS011;8954;48.694;8.940;2023-04-24T19:00:04;0.20;;;0.20;;
17670;SDS011;8954;48.694;8.940;2023-04-24T19:02:31;0.30;;;0.30;;
17670;SDS011;8954;48.694;8.940;2023-04-24T19:04:58;0.50;;;0.30;;
17670;SDS011;8954;48.694;8.940;2023-04-24T19:07:23;0.53;;;0.40;;
17670;SDS011;8954;48.694;8.940;2023-04-24T19:09:49;0.30;;;0.30;;
17670;SDS011;8954;48.694;8.940;2023-04-24T19:12:14;0.37;;;0.37;;
17670;SDS011;8954;48.694;8.940;2023-04-24T19:14:40;1.63;;;0.53;;
17670;SDS011;8954;48.694;8.940;2023-04-24T19:17:08;0.40;;;0.40;;
17670;SDS011;8954;48.694;8.940;2023-04-24T19:19:36;1.30;;;0.40;;
17670;SDS011;8954;48.694;8.940;2023-04-24T19:22:02;0.40;;;0.40;;
17670;SDS011;8954;48.694;8.940;2023-04-24T19:24:28;0.30;;;0.30;;
17670;SDS011;8954;48.694;8.940;2023-04-24T19:26:57;0.70;;;0.50;;
17670;SDS011;8954;48.694;8.940;2023-04-24T19:29:22;0.57;;;0.57;;
17670;SDS011;8954;48.694;8.940;2023-04-24T19:31:48;0.43;;;0.43;;
17670;SDS011;8954;48.694;8.940;2023-04-24T19:34:13;0.57;;;0.57;;
17670;SDS011;8954;48.694;8.940;2023-04-24T19:36:39;0.83;;;0.43;;
17670;SDS011;8954;48.694;8.940;2023-04-24T19:39:04;0.50;;;0.50;;
17670;SDS011;8954;48.694;8.940;2023-04-24T19:41:30;0.60;;;0.60;;
17670;SDS011;8954;48.694;8.940;2023-04-24T19:43:56;0.50;;;0.50;;
17670;SDS011;8954;48.694;8.940;2023-04-24T19:46:21;0.60;;;0.60;;
17670;SDS011;8954;48.694;8.940;2023-04-24T19:48:47;0.40;;;0.40;;
17670;SDS011;8954;48.694;8.940;2023-04-24T19:51:12;0.60;;;0.60;;
17670;SDS011;8954;48.694;8.940;2023-04-24T19:53:38;0.53;;;0.50;;
17670;SDS011;8954;48.694;8.940;2023-04-24T19:56:05;0.50;;;0.50;;
17670;SDS011;8954;48.694;8.940;2023-04-24T19:58:30;0.50;;;0.50;;
17670;SDS011;8954;48.694;8.940;2023-04-24T20:00:57;0.73;;;0.73;;
17670;SDS011;8954;48.694;8.940;2023-04-24T20:03:22;0.60;;;0.60;;
17670;SDS011;8954;48.694;8.940;2023-04-24T20:05:48;0.87;;;0.83;;
17670;SDS011;8954;48.694;8.940;2023-04-24T20:08:14;0.50;;;0.50;;
17670;SDS011;8954;48.694;8.940;2023-04-24T20:10:42;1.03;;;0.93;;
17670;SDS011;8954;48.694;8.940;2023-04-24T20:13:09;0.90;;;0.77;;
17670;SDS011;8954;48.694;8.940;2023-04-24T20:15:35;0.77;;;0.77;;
17670;SDS011;8954;48.694;8.940;2023-04-24T20:18:01;0.73;;;0.73;;
17670;SDS011;8954;48.694;8.940;2023-04-24T20:20:26;0.70;;;0.50;;
17670;SDS011;8954;48.694;8.940;2023-04-24T20:22:52;0.67;;;0.60;;
17670;SDS011;8954;48.694;8.940;2023-04-24T20:25:18;0.70;;;0.70;;
17670;SDS011;8954;48.694;8.940;2023-04-24T20:27:44;0.50;;;0.50;;
17670;SDS011;8954;48.694;8.940;2023-04-24T20:30:09;0.73;;;0.73;;
17670;SDS011;8954;48.694;8.940;2023-04-24T20:32:40;1.07;;;0.77;;
17670;SDS011;8954;48.694;8.940;2023-04-24T20:35:09;0.70;;;0.70;;
17670;SDS011;8954;48.694;8.940;2023-04-24T20:37:36;0.60;;;0.60;;
17670;SDS011;8954;48.694;8.940;2023-04-24T20:40:02;0.77;;;0.77;;
17670;SDS011;8954;48.694;8.940;2023-04-24T20:42:32;0.43;;;0.43;;
17670;SDS011;8954;48.694;8.940;2023-04-24T20:44:58;0.60;;;0.60;;
17670;SDS011;8954;48.694;8.940;2023-04-24T20:47:24;0.40;;;0.40;;
17670;SDS011;8954;48.694;8.940;2023-04-24T20:49:50;0.50;;;0.50;;
17670;SDS011;8954;48.694;8.940;2023-04-24T20:52:16;0.50;;;0.50;;
17670;SDS011;8954;48.694;8.940;2023-04-24T20:54:42;0.57;;;0.57;;
17670;SDS011;8954;48.694;8.940;2023-04-24T20:57:07;0.70;;;0.70;;
17670;SDS011;8954;48.694;8.940;2023-04-24T20:59:33;0.40;;;0.40;;
17670;SDS011;8954;48.694;8.940;2023-04-24T21:01:59;0.40;;;0.40;;
17670;SDS011;8954;48.694;8.940;2023-04-24T21:04:25;0.43;;;0.43;;
17670;SDS011;8954;48.694;8.940;2023-04-24T21:06:50;0.67;;;0.67;;
17670;SDS011;8954;48.694;8.940;2023-04-24T21:09:16;0.43;;;0.43;;
17670;SDS011;8954;48.694;8.940;2023-04-24T21:11:42;0.50;;;0.50;;
17670;SDS011;8954;48.694;8.940;2023-04-24T21:14:07;1.17;;;0.50;;
17670;SDS011;8954;48.694;8.940;2023-04-24T21:16:34;0.50;;;0.50;;
17670;SDS011;8954;48.694;8.940;2023-04-24T21:19:00;0.40;;;0.40;;
17670;SDS011;8954;48.694;8.940;2023-04-24T21:21:26;0.50;;;0.50;;
17670;SDS011;8954;48.694;8.940;2023-04-24T21:23:51;0.40;;;0.40;;
17670;SDS011;8954;48.694;8.940;2023-04-24T21:26:17;0.40;;;0.40;;
17670;SDS011;8954;48.694;8.940;2023-04-24T21:28:43;0.43;;;0.43;;
17670;SDS011;8954;48.694;8.940;2023-04-24T21:31:08;0.57;;;0.53;;
17670;SDS011;8954;48.694;8.940;2023-04-24T21:33:34;0.57;;;0.57;;
17670;SDS011;8954;48.694;8.940;2023-04-24T21:35:59;0.50;;;0.50;;
17670;SDS011;8954;48.694;8.940;2023-04-24T21:38:25;0.73;;;0.73;;
17670;SDS011;8954;48.694;8.940;2023-04-24T21:40:50;0.33;;;0.33;;
17670;SDS011;8954;48.694;8.940;2023-04-24T21:43:19;0.67;;;0.50;;
17670;SDS011;8954;48.694;8.940;2023-04-24T21:45:45;0.60;;;0.60;;
17670;SDS011;8954;48.694;8.940;2023-04-24T21:48:11;0.43;;;0.37;;
17670;SDS011;8954;48.694;8.940;2023-04-24T21:50:36;0.40;;;0.40;;
17670;SDS011;8954;48.694;8.940;2023-04-24T21:53:02;0.40;;;0.40;;
17670;SDS011;8954;48.694;8.940;2023-04-24T21:55:27;0.37;;;0.33;;
17670;SDS011;8954;48.694;8.940;2023-04-24T21:57:53;0.30;;;0.30;;
17670;SDS011;8954;48.694;8.940;2023-04-24T22:00:19;0.50;;;0.50;;
17670;SDS011;8954;48.694;8.940;2023-04-24T22:02:45;0.40;;;0.40;;
17670;SDS011;8954;48.694;8.940;2023-04-24T22:05:11;0.67;;;0.50;;
17670;SDS011;8954;48.694;8.940;2023-04-24T22:07:39;0.40;;;0.40;;
17670;SDS011;8954;48.694;8.940;2023-04-24T22:10:08;0.20;;;0.20;;
17670;SDS011;8954;48.694;8.940;2023-04-24T22:12:35;0.60;;;0.20;;
17670;SDS011;8954;48.694;8.940;2023-04-24T22:15:00;0.60;;;0.40;;
17670;SDS011;8954;48.694;8.940;2023-04-24T22:17:26;0.30;;;0.30;;
17670;SDS011;8954;48.694;8.940;2023-04-24T22:19:51;0.30;;;0.27;;
17670;SDS011;8954;48.694;8.940;2023-04-24T22:22:17;0.30;;;0.30;;
17670;SDS011;8954;48.694;8.940;2023-04-24T22:24:42;0.30;;;0.30;;
17670;SDS011;8954;48.694;8.940;2023-04-24T22:27:08;0.30;;;0.30;;
17670;SDS011;8954;48.694;8.940;2023-04-24T22:29:34;0.30;;;0.30;;
17670;SDS011;8954;48.694;8.940;2023-04-24T22:31:59;0.37;;;0.37;;
17670;SDS011;8954;48.694;8.940;2023-04-24T22:34:25;0.20;;;0.20;;
17670;SDS011;8954;48.694;8.940;2023-04-24T22:36:50;0.30;;;0.30;;
17670;SDS011;8954;48.694;8.940;2023-04-24T22:39:16;0.30;;;0.30;;
17670;SDS011;8954;48.694;8.940;2023-04-24T22:41:42;0.33;;;0.33;;
17670;SDS011;8954;48.694;8.940;2023-04-24T22:44:09;0.30;;;0.20;;
17670;SDS011;8954;48.694;8.940;2023-04-24T22:46:35;0.63;;;0.23;;
17670;SDS011;8954;48.694;8.940;2023-04-24T22:49:00;0.20;;;0.20;;
17670;SDS011;8954;48.694;8.940;2023-04-24T22:51:26;0.33;;;0.33;;
17670;SDS011;8954;48.694;8.940;2023-04-24T22:53:53;0.40;;;0.27;;
17670;SDS011;8954;48.694;8.940;2023-04-24T22:56:19;0.40;;;0.40;;
17670;SDS011;8954;48.694;8.940;2023-04-24T22:58:44;0.40;;;0.40;;